Accueil
METAR-TAF:

METAR-TAF

Aéroports :

Aéroport de Florence-Peretola

Florence, Italie

latitude: 43-48N, longitude: 011-12E, altitude: 40 m

Observation

Le bulletin a été fait il y a 25 minutes, à 04:20 UTC
Vent 10 kt de est/nord-est, variant entre nord/nord-est et est
Température 15°C
Humidité 51%
Pression 1022 hPa
Visibilité 10 km ou plus
pas de nuages en-dessous de 1500 mètres et pas de cumulonimbus.

METAR: LIRQ 270420Z 06010KT 020V090 CAVOK 15/05 Q1022

Heure: 06:45 (04:45 UTC)

Prévision

Le bulletin a été fait il y a 5 heures et 45 minutes, à 23:00 UTC
Prévision valable du 27 à 00 UTC au 27 à 24 UTC
Vent 10 kt de nord-est
Visibilité 10 km ou plus
Quelques nuages à une hauteur de 4000 ft

TAF: LIRQ 262300Z 2700/2724 05010KT 9999 FEW040

Observations et prévisions météorologiques de plus de 4000 aéroports (messages METAR et TAF).

Les stations disponibles sont représentées par des disques jaunes et rouges sur la carte.

Passer la souris dessus pour voir le nom de la station.

Cliquer dessus pour voir les observations et prévisions météorologiques.

Pour changer de carte: cliquez sur les boutons verts avec une croix noire pour zoomer, sur le bouton vert avec un tiret pour effectuer un zoom arrière, ou sur les flèches vertes pour les cartes adjacentes.


METAR-TAF: